sensor_id;sensor_type;location;lat;lon;timestamp;pressure;altitude;pressure_sealevel;temperature;humidity
35577;BME280;21680;52.400;16.920;2023-02-14T00:01:09;102702.09;;;4.43;80.98
35577;BME280;21680;52.400;16.920;2023-02-14T00:03:35;102699.98;;;4.44;81.19
35577;BME280;21680;52.400;16.920;2023-02-14T00:06:09;102703.70;;;4.44;81.15
35577;BME280;21680;52.400;16.920;2023-02-14T00:08:35;102704.20;;;4.42;81.22
35577;BME280;21680;52.400;16.920;2023-02-14T00:11:01;102702.59;;;4.41;81.10
35577;BME280;21680;52.400;16.920;2023-02-14T00:13:27;102700.82;;;4.42;81.21
35577;BME280;21680;52.400;16.920;2023-02-14T00:15:53;102700.48;;;4.42;81.35
35577;BME280;21680;52.400;16.920;2023-02-14T00:18:19;102694.83;;;4.43;81.43
35577;BME280;21680;52.400;16.920;2023-02-14T00:20:44;102700.48;;;4.42;81.31
35577;BME280;21680;52.400;16.920;2023-02-14T00:23:09;102700.46;;;4.41;81.31
35577;BME280;21680;52.400;16.920;2023-02-14T00:25:34;102702.55;;;4.39;81.33
35577;BME280;21680;52.400;16.920;2023-02-14T00:28:00;102700.75;;;4.37;81.38
35577;BME280;21680;52.400;16.920;2023-02-14T00:30:25;102699.66;;;4.35;81.50
35577;BME280;21680;52.400;16.920;2023-02-14T00:32:50;102700.88;;;4.33;81.28
35577;BME280;21680;52.400;16.920;2023-02-14T00:35:16;102693.95;;;4.32;81.44
35577;BME280;21680;52.400;16.920;2023-02-14T00:37:41;102694.81;;;4.30;81.45
35577;BME280;21680;52.400;16.920;2023-02-14T00:40:07;102697.64;;;4.30;81.58
35577;BME280;21680;52.400;16.920;2023-02-14T00:42:33;102700.65;;;4.30;81.56
35577;BME280;21680;52.400;16.920;2023-02-14T00:44:58;102702.95;;;4.30;81.56
35577;BME280;21680;52.400;16.920;2023-02-14T00:47:23;102705.42;;;4.30;81.67
35577;BME280;21680;52.400;16.920;2023-02-14T00:49:49;102708.27;;;4.31;81.68
35577;BME280;21680;52.400;16.920;2023-02-14T00:52:14;102706.66;;;4.30;81.64
35577;BME280;21680;52.400;16.920;2023-02-14T00:54:39;102705.39;;;4.28;81.66
35577;BME280;21680;52.400;16.920;2023-02-14T00:57:05;102714.23;;;4.27;81.57
35577;BME280;21680;52.400;16.920;2023-02-14T00:59:30;102715.27;;;4.26;81.75
35577;BME280;21680;52.400;16.920;2023-02-14T01:01:55;102720.02;;;4.24;81.79
35577;BME280;21680;52.400;16.920;2023-02-14T01:04:21;102715.95;;;4.24;81.70
35577;BME280;21680;52.400;16.920;2023-02-14T01:06:46;102722.14;;;4.24;81.76
35577;BME280;21680;52.400;16.920;2023-02-14T01:09:11;102720.00;;;4.23;81.87
35577;BME280;21680;52.400;16.920;2023-02-14T01:11:37;102724.61;;;4.23;81.99
35577;BME280;21680;52.400;16.920;2023-02-14T01:14:03;102724.60;;;4.23;82.04
35577;BME280;21680;52.400;16.920;2023-02-14T01:16:29;102723.53;;;4.22;82.11
35577;BME280;21680;52.400;16.920;2023-02-14T01:18:56;102718.40;;;4.22;82.03
35577;BME280;21680;52.400;16.920;2023-02-14T01:21:31;102717.85;;;4.21;82.08
35577;BME280;21680;52.400;16.920;2023-02-14T01:24:00;102714.28;;;4.20;82.11
35577;BME280;21680;52.400;16.920;2023-02-14T01:26:26;102713.20;;;4.17;82.17
35577;BME280;21680;52.400;16.920;2023-02-14T01:28:52;102705.05;;;4.17;82.24
35577;BME280;21680;52.400;16.920;2023-02-14T01:31:21;102709.47;;;4.17;82.15
35577;BME280;21680;52.400;16.920;2023-02-14T01:33:48;102705.03;;;4.16;82.21
35577;BME280;21680;52.400;16.920;2023-02-14T01:36:15;102699.34;;;4.14;82.36
35577;BME280;21680;52.400;16.920;2023-02-14T01:38:40;102696.67;;;4.13;82.19
35577;BME280;21680;52.400;16.920;2023-02-14T01:41:05;102695.96;;;4.13;82.28
35577;BME280;21680;52.400;16.920;2023-02-14T01:43:31;102696.48;;;4.12;82.42
35577;BME280;21680;52.400;16.920;2023-02-14T01:45:56;102693.96;;;4.10;82.28
35577;BME280;21680;52.400;16.920;2023-02-14T01:48:22;102696.25;;;4.09;82.52
35577;BME280;21680;52.400;16.920;2023-02-14T01:50:50;102698.53;;;4.08;82.69
35577;BME280;21680;52.400;16.920;2023-02-14T01:53:22;102695.50;;;4.07;82.37
35577;BME280;21680;52.400;16.920;2023-02-14T01:55:56;102699.74;;;4.06;82.65
35577;BME280;21680;52.400;16.920;2023-02-14T01:58:25;102694.95;;;4.06;82.62
35577;BME280;21680;52.400;16.920;2023-02-14T02:00:53;102699.03;;;4.06;82.73
35577;BME280;21680;52.400;16.920;2023-02-14T02:03:30;102696.21;;;4.07;82.76
35577;BME280;21680;52.400;16.920;2023-02-14T02:06:04;102695.31;;;4.06;82.52
35577;BME280;21680;52.400;16.920;2023-02-14T02:08:36;102692.11;;;4.05;82.89
35577;BME280;21680;52.400;16.920;2023-02-14T02:11:03;102692.84;;;4.06;82.90
35577;BME280;21680;52.400;16.920;2023-02-14T02:13:28;102694.27;;;4.07;82.84
35577;BME280;21680;52.400;16.920;2023-02-14T02:44:17;102672.21;;;4.00;83.21
35577;BME280;21680;52.400;16.920;2023-02-14T02:47:06;102670.81;;;4.00;83.29
35577;BME280;21680;52.400;16.920;2023-02-14T02:55:36;102664.61;;;4.00;83.49
35577;BME280;21680;52.400;16.920;2023-02-14T02:58:23;102666.38;;;4.00;83.17
35577;BME280;21680;52.400;16.920;2023-02-14T03:00:52;102664.97;;;4.00;83.28
35577;BME280;21680;52.400;16.920;2023-02-14T03:03:20;102665.64;;;3.97;83.43
35577;BME280;21680;52.400;16.920;2023-02-14T03:06:06;102664.73;;;3.96;83.46
35577;BME280;21680;52.400;16.920;2023-02-14T03:08:32;102665.10;;;3.97;83.65
35577;BME280;21680;52.400;16.920;2023-02-14T03:10:58;102669.88;;;3.97;83.46
35577;BME280;21680;52.400;16.920;2023-02-14T03:13:52;102669.50;;;3.96;83.43
35577;BME280;21680;52.400;16.920;2023-02-14T03:16:30;102668.96;;;3.96;83.46
35577;BME280;21680;52.400;16.920;2023-02-14T03:26:58;102680.59;;;3.93;83.55
35577;BME280;21680;52.400;16.920;2023-02-14T03:32:38;102684.48;;;3.93;83.63
35577;BME280;21680;52.400;16.920;2023-02-14T03:35:17;102684.11;;;3.92;83.61
35577;BME280;21680;52.400;16.920;2023-02-14T03:37:52;102688.16;;;3.90;83.62
35577;BME280;21680;52.400;16.920;2023-02-14T03:40:42;102689.20;;;3.89;83.91
35577;BME280;21680;52.400;16.920;2023-02-14T03:43:11;102688.33;;;3.89;83.73
35577;BME280;21680;52.400;16.920;2023-02-14T03:45:42;102689.38;;;3.89;83.84
35577;BME280;21680;52.400;16.920;2023-02-14T03:48:12;102690.27;;;3.89;83.76
35577;BME280;21680;52.400;16.920;2023-02-14T03:50:40;102685.29;;;3.88;83.97
35577;BME280;21680;52.400;16.920;2023-02-14T03:53:09;102688.31;;;3.89;84.07
35577;BME280;21680;52.400;16.920;2023-02-14T03:55:42;102687.77;;;3.88;84.12
35577;BME280;21680;52.400;16.920;2023-02-14T03:58:22;102687.73;;;3.86;83.90
35577;BME280;21680;52.400;16.920;2023-02-14T04:00:51;102683.66;;;3.86;83.90
35577;BME280;21680;52.400;16.920;2023-02-14T04:03:19;102682.24;;;3.86;84.10
35577;BME280;21680;52.400;16.920;2023-02-14T04:05:48;102681.20;;;3.86;84.18
35577;BME280;21680;52.400;16.920;2023-02-14T04:08:21;102680.30;;;3.86;84.15
35577;BME280;21680;52.400;16.920;2023-02-14T04:10:48;102682.08;;;3.86;84.24
35577;BME280;21680;52.400;16.920;2023-02-14T04:13:14;102685.26;;;3.86;84.23
35577;BME280;21680;52.400;16.920;2023-02-14T04:15:39;102684.35;;;3.85;84.06
35577;BME280;21680;52.400;16.920;2023-02-14T04:18:05;102680.11;;;3.85;84.23
35577;BME280;21680;52.400;16.920;2023-02-14T04:20:48;102675.69;;;3.85;84.14
35577;BME280;21680;52.400;16.920;2023-02-14T04:23:14;102684.14;;;3.83;84.22
35577;BME280;21680;52.400;16.920;2023-02-14T04:25:40;102684.65;;;3.81;84.21
35577;BME280;21680;52.400;16.920;2023-02-14T04:28:07;102685.35;;;3.81;84.28
35577;BME280;21680;52.400;16.920;2023-02-14T04:30:33;102688.53;;;3.81;84.39
35577;BME280;21680;52.400;16.920;2023-02-14T04:32:58;102690.47;;;3.81;84.37
35577;BME280;21680;52.400;16.920;2023-02-14T04:35:24;102694.90;;;3.81;84.36
35577;BME280;21680;52.400;16.920;2023-02-14T04:37:49;102697.02;;;3.81;84.36
35577;BME280;21680;52.400;16.920;2023-02-14T04:40:14;102697.71;;;3.80;84.32
35577;BME280;21680;52.400;16.920;2023-02-14T04:42:43;102692.20;;;3.79;84.36
35577;BME280;21680;52.400;16.920;2023-02-14T04:45:09;102691.66;;;3.78;84.42
35577;BME280;21680;52.400;16.920;2023-02-14T04:47:34;102687.41;;;3.77;84.45
35577;BME280;21680;52.400;16.920;2023-02-14T04:49:59;102682.97;;;3.76;84.39
35577;BME280;21680;52.400;16.920;2023-02-14T04:52:25;102683.33;;;3.77;84.57
35577;BME280;21680;52.400;16.920;2023-02-14T04:54:50;102687.20;;;3.76;84.53
35577;BME280;21680;52.400;16.920;2023-02-14T04:57:16;102687.38;;;3.76;84.72
35577;BME280;21680;52.400;16.920;2023-02-14T04:59:41;102684.75;;;3.77;84.55
35577;BME280;21680;52.400;16.920;2023-02-14T05:02:06;102679.65;;;3.79;84.58
35577;BME280;21680;52.400;16.920;2023-02-14T05:04:32;102678.58;;;3.79;84.66
35577;BME280;21680;52.400;16.920;2023-02-14T05:06:57;102676.28;;;3.78;84.76
35577;BME280;21680;52.400;16.920;2023-02-14T05:09:22;102680.53;;;3.78;84.70
35577;BME280;21680;52.400;16.920;2023-02-14T05:11:47;102679.64;;;3.78;84.83
35577;BME280;21680;52.400;16.920;2023-02-14T05:14:13;102683.20;;;3.79;84.77
35577;BME280;21680;52.400;16.920;2023-02-14T05:16:38;102683.73;;;3.79;84.89
35577;BME280;21680;52.400;16.920;2023-02-14T05:19:03;102682.85;;;3.79;84.75
35577;BME280;21680;52.400;16.920;2023-02-14T05:21:29;102680.55;;;3.80;84.95
35577;BME280;21680;52.400;16.920;2023-02-14T05:23:58;102682.48;;;3.79;84.83
35577;BME280;21680;52.400;16.920;2023-02-14T05:26:23;102683.16;;;3.78;84.78
35577;BME280;21680;52.400;16.920;2023-02-14T05:28:48;102682.60;;;3.76;84.78
35577;BME280;21680;52.400;16.920;2023-02-14T05:31:14;102678.37;;;3.76;85.05
35577;BME280;21680;52.400;16.920;2023-02-14T05:33:39;102681.39;;;3.76;84.75
35577;BME280;21680;52.400;16.920;2023-02-14T05:36:05;102686.69;;;3.77;84.91
35577;BME280;21680;52.400;16.920;2023-02-14T05:38:30;102690.39;;;3.76;84.88
35577;BME280;21680;52.400;16.920;2023-02-14T05:40:57;102694.31;;;3.78;85.06
35577;BME280;21680;52.400;16.920;2023-02-14T05:43:23;102693.61;;;3.79;84.98
35577;BME280;21680;52.400;16.920;2023-02-14T05:45:48;102696.97;;;3.79;85.07
35577;BME280;21680;52.400;16.920;2023-02-14T05:48:14;102697.86;;;3.79;85.12
35577;BME280;21680;52.400;16.920;2023-02-14T05:50:39;102700.70;;;3.79;84.98
35577;BME280;21680;52.400;16.920;2023-02-14T05:53:07;102698.74;;;3.78;85.05
35577;BME280;21680;52.400;16.920;2023-02-14T05:55:32;102693.98;;;3.79;85.16
35577;BME280;21680;52.400;16.920;2023-02-14T05:57:58;102700.88;;;3.80;85.12
35577;BME280;21680;52.400;16.920;2023-02-14T06:00:23;102702.49;;;3.81;85.08
35577;BME280;21680;52.400;16.920;2023-02-14T06:02:49;102701.09;;;3.81;85.05
35577;BME280;21680;52.400;16.920;2023-02-14T06:05:14;102703.24;;;3.83;85.15
35577;BME280;21680;52.400;16.920;2023-02-14T06:07:41;102704.66;;;3.83;85.17
35577;BME280;21680;52.400;16.920;2023-02-14T06:10:08;102705.89;;;3.83;85.03
35577;BME280;21680;52.400;16.920;2023-02-14T06:12:34;102709.93;;;3.81;85.18
35577;BME280;21680;52.400;16.920;2023-02-14T06:14:59;102712.24;;;3.82;85.06
35577;BME280;21680;52.400;16.920;2023-02-14T06:17:24;102714.02;;;3.82;85.29
35577;BME280;21680;52.400;16.920;2023-02-14T06:19:50;102714.36;;;3.82;85.17
35577;BME280;21680;52.400;16.920;2023-02-14T06:22:15;102717.35;;;3.80;85.21
35577;BME280;21680;52.400;16.920;2023-02-14T06:24:40;102719.98;;;3.80;85.24
35577;BME280;21680;52.400;16.920;2023-02-14T06:27:05;102721.05;;;3.79;85.16
35577;BME280;21680;52.400;16.920;2023-02-14T06:29:31;102715.90;;;3.79;85.14
35577;BME280;21680;52.400;16.920;2023-02-14T06:31:56;102715.35;;;3.78;85.29
35577;BME280;21680;52.400;16.920;2023-02-14T06:34:21;102720.48;;;3.78;85.32
35577;BME280;21680;52.400;16.920;2023-02-14T06:36:46;102723.86;;;3.78;85.27
35577;BME280;21680;52.400;16.920;2023-02-14T06:39:12;102723.67;;;3.79;85.22
35577;BME280;21680;52.400;16.920;2023-02-14T06:41:37;102726.02;;;3.80;85.46
35577;BME280;21680;52.400;16.920;2023-02-14T06:44:02;102721.44;;;3.82;85.31
35577;BME280;21680;52.400;16.920;2023-02-14T06:46:28;102721.63;;;3.82;85.14
35577;BME280;21680;52.400;16.920;2023-02-14T06:48:53;102728.72;;;3.84;85.26
35577;BME280;21680;52.400;16.920;2023-02-14T06:51:18;102730.31;;;3.84;85.39
35577;BME280;21680;52.400;16.920;2023-02-14T06:53:44;102732.47;;;3.86;85.42
35577;BME280;21680;52.400;16.920;2023-02-14T06:56:09;102728.06;;;3.87;85.32
35577;BME280;21680;52.400;16.920;2023-02-14T06:58:34;102733.08;;;3.90;85.46
35577;BME280;21680;52.400;16.920;2023-02-14T07:00:59;102734.88;;;3.91;85.52
35577;BME280;21680;52.400;16.920;2023-02-14T07:03:26;102741.63;;;3.94;85.37
35577;BME280;21680;52.400;16.920;2023-02-14T07:05:52;102739.17;;;3.96;85.52
35577;BME280;21680;52.400;16.920;2023-02-14T07:08:18;102736.57;;;3.98;85.54
35577;BME280;21680;52.400;16.920;2023-02-14T07:10:44;102739.98;;;4.00;85.55
35577;BME280;21680;52.400;16.920;2023-02-14T07:13:10;102744.80;;;4.04;85.54
35577;BME280;21680;52.400;16.920;2023-02-14T07:15:35;102748.77;;;4.08;85.43
35577;BME280;21680;52.400;16.920;2023-02-14T07:18:01;102751.67;;;4.12;85.61
35577;BME280;21680;52.400;16.920;2023-02-14T07:20:26;102748.18;;;4.15;85.64
35577;BME280;21680;52.400;16.920;2023-02-14T07:22:52;102745.95;;;4.18;85.73
35577;BME280;21680;52.400;16.920;2023-02-14T07:25:19;102750.96;;;4.22;85.47
35577;BME280;21680;52.400;16.920;2023-02-14T07:27:44;102756.31;;;4.25;85.68
35577;BME280;21680;52.400;16.920;2023-02-14T07:30:11;102754.59;;;4.28;85.59
35577;BME280;21680;52.400;16.920;2023-02-14T07:32:37;102756.94;;;4.31;85.64
35577;BME280;21680;52.400;16.920;2023-02-14T07:35:03;102758.73;;;4.32;85.58
35577;BME280;21680;52.400;16.920;2023-02-14T07:37:31;102758.57;;;4.33;85.60
35577;BME280;21680;52.400;16.920;2023-02-14T07:39:56;102759.20;;;4.39;85.64
35577;BME280;21680;52.400;16.920;2023-02-14T07:42:22;102764.76;;;4.44;85.63
35577;BME280;21680;52.400;16.920;2023-02-14T07:44:47;102766.02;;;4.45;85.65
35577;BME280;21680;52.400;16.920;2023-02-14T07:47:12;102764.43;;;4.45;85.47
35577;BME280;21680;52.400;16.920;2023-02-14T07:49:37;102764.32;;;4.50;85.46
35577;BME280;21680;52.400;16.920;2023-02-14T07:52:03;102761.39;;;4.55;85.47
35577;BME280;21680;52.400;16.920;2023-02-14T07:54:29;102761.80;;;4.59;85.53
35577;BME280;21680;52.400;16.920;2023-02-14T07:56:54;102763.14;;;4.65;85.42
35577;BME280;21680;52.400;16.920;2023-02-14T07:59:19;102758.97;;;4.70;85.55
35577;BME280;21680;52.400;16.920;2023-02-14T08:01:45;102762.55;;;4.73;85.45
35577;BME280;21680;52.400;16.920;2023-02-14T08:04:10;102766.87;;;4.78;85.45
35577;BME280;21680;52.400;16.920;2023-02-14T08:06:38;102770.93;;;4.77;85.28
35577;BME280;21680;52.400;16.920;2023-02-14T08:09:04;102765.84;;;4.80;85.33
35577;BME280;21680;52.400;16.920;2023-02-14T08:11:29;102759.98;;;4.79;84.92
35577;BME280;21680;52.400;16.920;2023-02-14T08:14:14;102758.55;;;4.78;84.86
35577;BME280;21680;52.400;16.920;2023-02-14T08:16:39;102762.45;;;4.78;84.81
35577;BME280;21680;52.400;16.920;2023-02-14T08:19:07;102757.52;;;4.80;84.86
35577;BME280;21680;52.400;16.920;2023-02-14T08:21:32;102755.45;;;4.85;84.88
35577;BME280;21680;52.400;16.920;2023-02-14T08:23:58;102762.41;;;4.88;84.71
35577;BME280;21680;52.400;16.920;2023-02-14T08:26:23;102771.52;;;4.93;84.84
35577;BME280;21680;52.400;16.920;2023-02-14T08:28:49;102771.98;;;5.01;84.94
35577;BME280;21680;52.400;16.920;2023-02-14T08:31:23;102769.45;;;5.11;84.85
35577;BME280;21680;52.400;16.920;2023-02-14T08:33:49;102770.79;;;5.19;84.94
35577;BME280;21680;52.400;16.920;2023-02-14T08:36:14;102780.55;;;5.22;84.64
35577;BME280;21680;52.400;16.920;2023-02-14T08:38:42;102779.36;;;5.27;84.87
35577;BME280;21680;52.400;16.920;2023-02-14T08:41:09;102775.35;;;5.31;84.85
35577;BME280;21680;52.400;16.920;2023-02-14T08:43:35;102774.84;;;5.33;84.51
35577;BME280;21680;52.400;16.920;2023-02-14T08:46:00;102778.61;;;5.37;84.63
35577;BME280;21680;52.400;16.920;2023-02-14T08:48:25;102779.40;;;5.44;84.72
35577;BME280;21680;52.400;16.920;2023-02-14T08:50:51;102780.70;;;5.47;84.61
35577;BME280;21680;52.400;16.920;2023-02-14T08:53:17;102778.06;;;5.50;84.33
35577;BME280;21680;52.400;16.920;2023-02-14T08:55:42;102774.89;;;5.53;84.10
35577;BME280;21680;52.400;16.920;2023-02-14T08:58:07;102776.83;;;5.51;83.97
35577;BME280;21680;52.400;16.920;2023-02-14T09:00:33;102781.83;;;5.54;84.00
35577;BME280;21680;52.400;16.920;2023-02-14T09:02:59;102789.33;;;5.59;84.04
35577;BME280;21680;52.400;16.920;2023-02-14T09:05:25;102789.88;;;5.61;83.92
35577;BME280;21680;52.400;16.920;2023-02-14T09:07:51;102789.23;;;5.65;83.88
35577;BME280;21680;52.400;16.920;2023-02-14T09:10:17;102788.75;;;5.70;83.84
35577;BME280;21680;52.400;16.920;2023-02-14T09:12:43;102789.32;;;5.74;83.63
35577;BME280;21680;52.400;16.920;2023-02-14T09:15:09;102792.19;;;5.76;83.47
35577;BME280;21680;52.400;16.920;2023-02-14T09:17:36;102795.48;;;5.84;83.56
35577;BME280;21680;52.400;16.920;2023-02-14T09:20:03;102797.40;;;5.96;83.68
35577;BME280;21680;52.400;16.920;2023-02-14T09:22:28;102797.67;;;6.05;83.56
35577;BME280;21680;52.400;16.920;2023-02-14T09:24:54;102799.64;;;6.08;83.24
35577;BME280;21680;52.400;16.920;2023-02-14T09:27:19;102800.67;;;6.05;83.09
35577;BME280;21680;52.400;16.920;2023-02-14T09:29:44;102800.86;;;6.06;83.11
35577;BME280;21680;52.400;16.920;2023-02-14T09:32:09;102792.39;;;6.10;82.96
35577;BME280;21680;52.400;16.920;2023-02-14T09:34:35;102786.92;;;6.13;82.98
35577;BME280;21680;52.400;16.920;2023-02-14T09:37:00;102787.48;;;6.16;82.97
35577;BME280;21680;52.400;16.920;2023-02-14T09:39:26;102794.08;;;6.19;82.83
35577;BME280;21680;52.400;16.920;2023-02-14T09:44:59;102795.38;;;6.26;82.52
35577;BME280;21680;52.400;16.920;2023-02-14T09:50:03;102796.33;;;6.33;82.29
35577;BME280;21680;52.400;16.920;2023-02-14T09:52:31;102797.00;;;6.30;82.02
35577;BME280;21680;52.400;16.920;2023-02-14T09:54:59;102789.40;;;6.34;82.19
35577;BME280;21680;52.400;16.920;2023-02-14T10:00:34;102787.05;;;6.29;81.29
35577;BME280;21680;52.400;16.920;2023-02-14T10:03:12;102787.17;;;6.23;81.12
35577;BME280;21680;52.400;16.920;2023-02-14T10:05:57;102777.98;;;6.28;81.15
35577;BME280;21680;52.400;16.920;2023-02-14T10:08:54;102779.83;;;6.35;80.89
35577;BME280;21680;52.400;16.920;2023-02-14T10:11:23;102780.11;;;6.28;79.11
35577;BME280;21680;52.400;16.920;2023-02-14T10:13:59;102780.58;;;6.20;79.04
35577;BME280;21680;52.400;16.920;2023-02-14T10:16:37;102783.22;;;6.16;78.62
35577;BME280;21680;52.400;16.920;2023-02-14T10:20:13;102773.84;;;6.20;78.88
35577;BME280;21680;52.400;16.920;2023-02-14T10:22:18;102768.81;;;6.35;79.21
35577;BME280;21680;52.400;16.920;2023-02-14T10:29:42;102767.63;;;6.65;78.77
35577;BME280;21680;52.400;16.920;2023-02-14T10:32:13;102759.41;;;6.59;77.78
35577;BME280;21680;52.400;16.920;2023-02-14T10:42:39;102762.75;;;6.54;77.25
35577;BME280;21680;52.400;16.920;2023-02-14T10:45:21;102755.37;;;6.66;77.32
35577;BME280;21680;52.400;16.920;2023-02-14T10:48:12;102758.61;;;6.74;77.47
35577;BME280;21680;52.400;16.920;2023-02-14T10:50:58;102755.58;;;6.72;76.99
35577;BME280;21680;52.400;16.920;2023-02-14T10:53:44;102758.75;;;6.67;76.09
35577;BME280;21680;52.400;16.920;2023-02-14T10:56:19;102753.61;;;6.70;76.44
35577;BME280;21680;52.400;16.920;2023-02-14T10:58:47;102752.89;;;6.68;75.60
35577;BME280;21680;52.400;16.920;2023-02-14T11:01:16;102753.11;;;6.73;75.97
35577;BME280;21680;52.400;16.920;2023-02-14T11:03:54;102751.92;;;6.83;75.99
35577;BME280;21680;52.400;16.920;2023-02-14T11:06:20;102745.60;;;6.98;76.34
35577;BME280;21680;52.400;16.920;2023-02-14T11:08:45;102740.15;;;7.11;76.42
35577;BME280;21680;52.400;16.920;2023-02-14T11:11:29;102744.95;;;7.11;75.47
35577;BME280;21680;52.400;16.920;2023-02-14T11:13:55;102744.72;;;6.99;75.37
35577;BME280;21680;52.400;16.920;2023-02-14T11:16:34;102749.80;;;6.88;75.21
35577;BME280;21680;52.400;16.920;2023-02-14T11:19:25;102742.16;;;6.87;75.41
35577;BME280;21680;52.400;16.920;2023-02-14T11:21:52;102744.48;;;6.89;75.02
35577;BME280;21680;52.400;16.920;2023-02-14T11:24:25;102742.84;;;6.79;74.41
35577;BME280;21680;52.400;16.920;2023-02-14T11:26:54;102732.34;;;6.76;74.58
35577;BME280;21680;52.400;16.920;2023-02-14T11:29:30;102726.87;;;6.85;74.67
35577;BME280;21680;52.400;16.920;2023-02-14T11:32:05;102730.97;;;6.86;74.81
35577;BME280;21680;52.400;16.920;2023-02-14T11:34:37;102735.61;;;6.91;74.75
35577;BME280;21680;52.400;16.920;2023-02-14T11:37:38;102732.38;;;6.84;74.53
35577;BME280;21680;52.400;16.920;2023-02-14T11:40:02;102733.06;;;6.79;74.46
35577;BME280;21680;52.400;16.920;2023-02-14T11:42:34;102728.42;;;6.75;74.45
35577;BME280;21680;52.400;16.920;2023-02-14T11:45:02;102723.65;;;6.81;74.90
35577;BME280;21680;52.400;16.920;2023-02-14T11:47:31;102722.83;;;6.93;74.97
35577;BME280;21680;52.400;16.920;2023-02-14T11:50:04;102720.23;;;7.09;75.03
35577;BME280;21680;52.400;16.920;2023-02-14T11:52:47;102715.14;;;7.23;75.04
35577;BME280;21680;52.400;16.920;2023-02-14T11:55:25;102715.55;;;7.42;75.14
35577;BME280;21680;52.400;16.920;2023-02-14T11:57:51;102717.72;;;7.55;75.01
35577;BME280;21680;52.400;16.920;2023-02-14T12:00:18;102710.23;;;7.54;74.63
35577;BME280;21680;52.400;16.920;2023-02-14T12:02:49;102707.39;;;7.55;74.65
35577;BME280;21680;52.400;16.920;2023-02-14T12:05:27;102706.52;;;7.63;74.91
35577;BME280;21680;52.400;16.920;2023-02-14T12:07:55;102704.20;;;7.61;74.37
35577;BME280;21680;52.400;16.920;2023-02-14T12:10:37;102704.90;;;7.56;74.27
35577;BME280;21680;52.400;16.920;2023-02-14T12:18:40;102692.06;;;7.42;74.06
35577;BME280;21680;52.400;16.920;2023-02-14T12:21:14;102694.20;;;7.43;73.91
35577;BME280;21680;52.400;16.920;2023-02-14T12:26:52;102698.98;;;7.32;73.45
35577;BME280;21680;52.400;16.920;2023-02-14T12:29:30;102695.92;;;7.24;73.27
35577;BME280;21680;52.400;16.920;2023-02-14T12:32:01;102693.39;;;7.11;73.22
35577;BME280;21680;52.400;16.920;2023-02-14T12:34:26;102695.52;;;7.08;73.33
35577;BME280;21680;52.400;16.920;2023-02-14T12:37:36;102697.83;;;7.08;73.64
35577;BME280;21680;52.400;16.920;2023-02-14T12:40:13;102691.97;;;7.10;73.61
35577;BME280;21680;52.400;16.920;2023-02-14T12:43:17;102685.38;;;7.05;73.55
35577;BME280;21680;52.400;16.920;2023-02-14T12:57:04;102685.13;;;6.89;73.31
35577;BME280;21680;52.400;16.920;2023-02-14T12:59:40;102685.10;;;6.81;73.33
35577;BME280;21680;52.400;16.920;2023-02-14T13:07:55;102677.91;;;6.65;73.33
35577;BME280;21680;52.400;16.920;2023-02-14T13:13:48;102674.23;;;6.72;73.53
35577;BME280;21680;52.400;16.920;2023-02-14T13:21:36;102677.16;;;6.97;73.51
35577;BME280;21680;52.400;16.920;2023-02-14T13:24:13;102675.95;;;7.06;73.47
35577;BME280;21680;52.400;16.920;2023-02-14T13:26:42;102675.95;;;7.04;73.32
35577;BME280;21680;52.400;16.920;2023-02-14T13:29:13;102674.89;;;7.08;73.35
35577;BME280;21680;52.400;16.920;2023-02-14T13:31:40;102674.92;;;7.16;73.51
35577;BME280;21680;52.400;16.920;2023-02-14T13:34:24;102673.91;;;7.33;73.77
35577;BME280;21680;52.400;16.920;2023-02-14T13:36:52;102669.30;;;7.40;73.31
35577;BME280;21680;52.400;16.920;2023-02-14T13:41:52;102668.23;;;7.46;73.30
35577;BME280;21680;52.400;16.920;2023-02-14T13:47:20;102666.66;;;7.58;73.23
35577;BME280;21680;52.400;16.920;2023-02-14T13:49:50;102670.04;;;7.51;72.87
35577;BME280;21680;52.400;16.920;2023-02-14T13:52:41;102665.40;;;7.47;72.79
35577;BME280;21680;52.400;16.920;2023-02-14T13:55:15;102667.70;;;7.45;72.71
35577;BME280;21680;52.400;16.920;2023-02-14T13:57:42;102667.52;;;7.45;72.75
35577;BME280;21680;52.400;16.920;2023-02-14T14:02:46;102664.47;;;7.29;72.25
35577;BME280;21680;52.400;16.920;2023-02-14T14:10:55;102667.94;;;6.99;72.05
35577;BME280;21680;52.400;16.920;2023-02-14T14:21:28;102660.42;;;6.86;71.95
35577;BME280;21680;52.400;16.920;2023-02-14T14:29:39;102650.30;;;6.91;72.04
35577;BME280;21680;52.400;16.920;2023-02-14T14:32:15;102654.19;;;6.85;71.89
35577;BME280;21680;52.400;16.920;2023-02-14T14:37:52;102641.89;;;6.76;71.82
35577;BME280;21680;52.400;16.920;2023-02-14T14:40:29;102639.59;;;6.78;72.01
35577;BME280;21680;52.400;16.920;2023-02-14T14:43:00;102648.66;;;6.79;72.07
35577;BME280;21680;52.400;16.920;2023-02-14T14:45:30;102647.05;;;6.77;71.98
35577;BME280;21680;52.400;16.920;2023-02-14T14:47:58;102646.52;;;6.76;72.08
35577;BME280;21680;52.400;16.920;2023-02-14T14:50:27;102649.70;;;6.73;71.95
35577;BME280;21680;52.400;16.920;2023-02-14T14:52:59;102651.27;;;6.65;71.58
35577;BME280;21680;52.400;16.920;2023-02-14T14:55:30;102653.00;;;6.58;71.63
35577;BME280;21680;52.400;16.920;2023-02-14T14:57:59;102647.50;;;6.60;71.77
35577;BME280;21680;52.400;16.920;2023-02-14T15:00:36;102644.30;;;6.60;71.78
35577;BME280;21680;52.400;16.920;2023-02-14T15:05:41;102640.20;;;6.57;71.64
35577;BME280;21680;52.400;16.920;2023-02-14T15:08:22;102638.23;;;6.52;71.77
35577;BME280;21680;52.400;16.920;2023-02-14T15:11:02;102634.67;;;6.52;71.96
35577;BME280;21680;52.400;16.920;2023-02-14T15:16:39;102627.87;;;6.43;71.72
35577;BME280;21680;52.400;16.920;2023-02-14T15:19:08;102620.03;;;6.37;71.95